Time;durP1;ratioP1;P1;durP2;ratioP2;P2;SDS_P1;SDS_P2;PMS_P1;PMS_P2;Temp;Humidity;BMP_temperature;BMP_pressure;BME280_temperature;BME280_humidity;BME280_pressure;Samples;Min_cycle;Max_cycle;Signal;HPM_P1;HPM_P2
2022/04/15 00:01:24;;;;;;;18.67;9.02;;;12.80;99.90;;;;;;5092638;28;20177;-55
2022/04/15 00:03:50;;;;;;;13.70;9.68;;;12.80;99.90;;;;;;5092451;28;20258;-55
2022/04/15 00:06:16;;;;;;;13.80;8.88;;;12.80;99.90;;;;;;5092594;28;20177;-56
2022/04/15 00:08:42;;;;;;;14.57;9.82;;;12.80;99.90;;;;;;5092839;28;20162;-53
2022/04/15 00:11:09;;;;;;;12.07;8.98;;;12.80;99.90;;;;;;5092874;28;20248;-54
2022/04/15 00:13:35;;;;;;;13.38;8.95;;;12.80;99.90;;;;;;5092384;28;20172;-54
2022/04/15 00:16:05;;;;;;;13.45;9.43;;;12.70;99.90;;;;;;5092303;28;20673;-54
2022/04/15 00:18:32;;;;;;;14.20;9.93;;;12.70;99.90;;;;;;5092351;28;20174;-54
2022/04/15 00:20:59;;;;;;;12.65;8.45;;;12.70;99.90;;;;;;5092334;28;20254;-54
2022/04/15 00:23:24;;;;;;;11.77;9.55;;;12.70;99.90;;;;;;5092602;28;20222;-55
2022/04/15 00:25:51;;;;;;;13.60;9.23;;;12.60;99.90;;;;;;5092055;28;20173;-55
2022/04/15 00:28:17;;;;;;;15.88;9.48;;;12.60;99.90;;;;;;5092141;28;20189;-54
2022/04/15 00:30:42;;;;;;;10.85;8.90;;;12.60;99.90;;;;;;5092283;28;20193;-54
2022/04/15 00:33:08;;;;;;;13.20;9.80;;;12.60;99.90;;;;;;5092559;28;20170;-55
2022/04/15 00:35:33;;;;;;;13.20;9.02;;;12.50;99.90;;;;;;5092012;28;20216;-56
2022/04/15 00:37:59;;;;;;;14.70;9.18;;;12.50;99.90;;;;;;5092277;28;20204;-55
2022/04/15 00:40:25;;;;;;;12.88;9.27;;;12.40;99.90;;;;;;5092132;28;20580;-55
2022/04/15 00:42:50;;;;;;;16.23;9.73;;;12.40;99.90;;;;;;5092007;28;20684;-55
2022/04/15 00:45:16;;;;;;;16.08;10.70;;;12.50;99.90;;;;;;5092250;28;20174;-56
2022/04/15 00:47:53;;;;;;;13.65;9.98;;;12.40;99.90;;;;;;5092327;28;20158;-56
2022/04/15 00:50:20;;;;;;;19.83;9.70;;;12.40;99.90;;;;;;5091931;28;20173;-55
2022/04/15 00:52:50;;;;;;;15.50;9.95;;;14.20;99.90;;;;;;5091736;28;20169;-56
2022/04/15 00:55:17;;;;;;;11.85;9.85;;;12.40;99.90;;;;;;5091828;28;20208;-55
2022/04/15 00:57:49;;;;;;;13.07;10.35;;;12.40;99.90;;;;;;5091773;28;20165;-55
2022/04/15 01:00:15;;;;;;;12.82;10.20;;;12.30;99.90;;;;;;5091866;28;20244;-55
2022/04/15 01:02:42;;;;;;;14.18;10.93;;;12.30;99.90;;;;;;5092465;28;20176;-55
2022/04/15 01:05:09;;;;;;;12.70;9.45;;;12.30;99.90;;;;;;5092005;28;20731;-56
2022/04/15 01:07:42;;;;;;;12.88;10.27;;;12.20;99.90;;;;;;5092115;28;20207;-56
2022/04/15 01:10:11;;;;;;;16.17;10.00;;;12.20;99.90;;;;;;5092025;28;20649;-55
2022/04/15 01:12:39;;;;;;;17.65;10.70;;;12.20;99.90;;;;;;5091717;28;20232;-56
2022/04/15 01:15:07;;;;;;;14.13;9.30;;;12.10;99.90;;;;;;5091851;28;20209;-56
2022/04/15 01:17:35;;;;;;;17.17;10.25;;;12.10;99.90;;;;;;5091952;28;20169;-56
2022/04/15 01:20:04;;;;;;;12.45;9.60;;;12.10;99.90;;;;;;5091668;28;20221;-56
2022/04/15 01:22:37;;;;;;;13.35;9.93;;;12.10;99.90;;;;;;5091607;28;20623;-56
2022/04/15 01:25:04;;;;;;;15.60;10.50;;;12.10;99.90;;;;;;5091614;28;20219;-56
2022/04/15 01:27:34;;;;;;;14.40;10.52;;;12.10;99.90;;;;;;5091774;28;20165;-55
2022/04/15 01:30:00;;;;;;;16.88;10.55;;;12.10;99.90;;;;;;5091880;28;20242;-56
2022/04/15 01:32:25;;;;;;;17.23;9.52;;;12.10;99.90;;;;;;5090222;28;20563;-56
2022/04/15 01:34:51;;;;;;;14.05;9.75;;;12.10;99.90;;;;;;5091707;28;20292;-56
2022/04/15 01:37:20;;;;;;;15.55;9.90;;;12.00;99.90;;;;;;5093559;28;20165;-55
2022/04/15 01:39:49;;;;;;;15.07;11.38;;;12.00;99.90;;;;;;5095309;28;20161;-55
2022/04/15 01:42:14;;;;;;;13.75;10.70;;;12.00;99.90;;;;;;5095364;28;20177;-54
2022/04/15 01:44:41;;;;;;;13.50;10.38;;;12.00;99.90;;;;;;5095677;28;20252;-55
2022/04/15 01:47:08;;;;;;;14.15;11.43;;;12.00;99.90;;;;;;5095389;28;20169;-56
2022/04/15 01:49:33;;;;;;;13.98;10.10;;;11.90;99.90;;;;;;5095473;28;20536;-56
2022/04/15 01:51:59;;;;;;;15.18;11.27;;;11.90;99.90;;;;;;5095196;28;20215;-56
2022/04/15 01:54:27;;;;;;;14.07;10.48;;;11.90;99.90;;;;;;5095097;28;20246;-55
2022/04/15 01:56:54;;;;;;;15.10;10.95;;;11.90;99.90;;;;;;5095359;28;20248;-55
2022/04/15 01:59:19;;;;;;;15.30;11.05;;;11.90;99.90;;;;;;5095301;28;20204;-56
2022/04/15 02:01:45;;;;;;;17.65;10.88;;;11.90;99.90;;;;;;5094887;28;20594;-56
2022/04/15 02:04:10;;;;;;;16.45;11.15;;;11.90;99.90;;;;;;5095202;28;20209;-54
2022/04/15 02:06:36;;;;;;;14.30;10.48;;;11.90;99.90;;;;;;5094931;28;20174;-55
2022/04/15 02:09:02;;;;;;;18.40;12.18;;;11.90;99.90;;;;;;5094898;28;20170;-55
2022/04/15 02:11:27;;;;;;;18.52;12.80;;;11.90;99.90;;;;;;5094802;28;20233;-54
2022/04/15 02:13:53;;;;;;;17.35;12.25;;;11.90;99.90;;;;;;5094722;28;20180;-54
2022/04/15 02:16:18;;;;;;;20.27;12.27;;;11.80;99.90;;;;;;5094788;28;20181;-55
2022/04/15 02:18:44;;;;;;;16.58;11.10;;;11.80;99.90;;;;;;5094634;28;20197;-54
2022/04/15 02:21:09;;;;;;;18.95;11.98;;;11.80;99.90;;;;;;5094930;28;20170;-55
2022/04/15 02:23:35;;;;;;;15.95;12.77;;;11.80;99.90;;;;;;5094530;28;20175;-54
2022/04/15 02:26:00;;;;;;;20.30;12.48;;;11.80;99.90;;;;;;5094570;28;20198;-55
2022/04/15 02:28:26;;;;;;;23.65;12.65;;;11.80;99.90;;;;;;5094553;28;20169;-55
2022/04/15 02:30:52;;;;;;;20.17;12.82;;;11.70;99.90;;;;;;5094354;28;20173;-55
2022/04/15 02:33:18;;;;;;;18.95;12.27;;;11.70;99.90;;;;;;5094626;28;20254;-55
2022/04/15 02:35:44;;;;;;;20.33;12.73;;;11.70;99.90;;;;;;5094496;28;20665;-54
2022/04/15 02:38:09;;;;;;;19.13;12.35;;;11.50;99.90;;;;;;5094538;28;20208;-55
2022/04/15 02:40:35;;;;;;;24.13;13.40;;;11.60;99.90;;;;;;5092983;28;20222;-56
2022/04/15 02:43:01;;;;;;;18.02;12.43;;;11.60;99.90;;;;;;5094158;28;20173;-55
2022/04/15 02:45:29;;;;;;;20.25;12.77;;;11.40;99.90;;;;;;5094175;28;20169;-56
2022/04/15 02:47:55;;;;;;;22.63;12.50;;;11.40;99.90;;;;;;5093773;28;20184;-55
2022/04/15 02:50:21;;;;;;;20.65;12.23;;;11.40;99.90;;;;;;5094129;28;20249;-56
2022/04/15 02:52:46;;;;;;;20.52;12.18;;;11.40;99.90;;;;;;5093960;28;20244;-55
2022/04/15 02:55:12;;;;;;;18.20;12.43;;;11.30;99.90;;;;;;5092661;28;20201;-54
2022/04/15 02:57:38;;;;;;;21.63;12.20;;;11.30;99.90;;;;;;5094261;28;20244;-55
2022/04/15 03:00:04;;;;;;;21.60;13.45;;;11.20;99.90;;;;;;5093866;28;20173;-55
2022/04/15 03:02:34;;;;;;;21.92;12.05;;;11.30;99.90;;;;;;5093799;28;20208;-55
2022/04/15 03:05:00;;;;;;;23.98;13.57;;;11.20;99.90;;;;;;5093595;28;20209;-55
2022/04/15 03:07:26;;;;;;;16.90;13.07;;;11.20;99.90;;;;;;5093702;28;20196;-55
2022/04/15 03:09:51;;;;;;;24.45;14.43;;;11.30;99.90;;;;;;5093722;28;20176;-55
2022/04/15 03:12:17;;;;;;;21.80;14.02;;;11.20;99.90;;;;;;5093664;28;20209;-55
2022/04/15 03:14:42;;;;;;;20.30;12.90;;;11.20;99.90;;;;;;5093556;28;20238;-54
2022/04/15 03:17:08;;;;;;;18.40;13.25;;;11.20;99.90;;;;;;5093982;28;20185;-55
2022/04/15 03:19:34;;;;;;;20.40;12.80;;;11.20;99.90;;;;;;5093700;28;20193;-55
2022/04/15 03:22:00;;;;;;;24.10;15.60;;;11.20;99.90;;;;;;5093726;28;20650;-55
2022/04/15 03:24:25;;;;;;;23.98;14.48;;;11.10;99.90;;;;;;5093608;28;20499;-55
2022/04/15 03:26:51;;;;;;;22.17;14.38;;;11.00;99.90;;;;;;5093305;28;20173;-55
2022/04/15 03:29:17;;;;;;;22.13;14.25;;;11.00;99.90;;;;;;5093341;28;20176;-55
2022/04/15 03:31:42;;;;;;;20.63;14.07;;;11.00;99.90;;;;;;5093158;28;20161;-54
2022/04/15 03:34:08;;;;;;;25.85;14.32;;;11.00;99.90;;;;;;5092140;28;20176;-54
2022/04/15 03:36:33;;;;;;;25.20;13.00;;;11.00;99.90;;;;;;5093191;28;20169;-55
2022/04/15 03:38:59;;;;;;;27.05;14.63;;;11.00;99.90;;;;;;5091804;28;20218;-55
2022/04/15 03:41:24;;;;;;;26.02;14.27;;;11.00;99.90;;;;;;5093124;28;20173;-55
2022/04/15 03:43:50;;;;;;;21.15;12.93;;;11.00;99.90;;;;;;5092983;28;20497;-55
2022/04/15 03:46:16;;;;;;;20.45;14.43;;;11.00;99.90;;;;;;5093124;28;20177;-55
2022/04/15 03:48:42;;;;;;;20.02;14.00;;;11.00;99.90;;;;;;5093393;28;20176;-55
2022/04/15 03:51:11;;;;;;;21.38;14.30;;;11.00;99.90;;;;;;5093165;28;20671;-55
2022/04/15 03:53:37;;;;;;;22.30;14.68;;;10.90;99.90;;;;;;5093106;28;20520;-55
2022/04/15 03:56:03;;;;;;;22.92;14.88;;;10.90;99.90;;;;;;5092975;28;20213;-55
2022/04/15 03:58:29;;;;;;;17.83;14.52;;;10.90;99.90;;;;;;5092860;28;20173;-55
2022/04/15 04:00:55;;;;;;;19.38;13.35;;;10.80;99.90;;;;;;5092152;28;20242;-55
2022/04/15 04:03:21;;;;;;;17.45;14.00;;;10.70;99.90;;;;;;5092630;28;20646;-55
2022/04/15 04:05:47;;;;;;;22.65;13.38;;;10.70;99.90;;;;;;5092316;28;20255;-55
2022/04/15 04:08:12;;;;;;;21.40;14.15;;;10.60;99.90;;;;;;5092559;28;20630;-54
2022/04/15 04:10:38;;;;;;;24.40;15.60;;;10.60;99.90;;;;;;5092878;28;20188;-56
2022/04/15 04:13:04;;;;;;;19.55;13.25;;;10.70;99.90;;;;;;5092397;28;20244;-55
2022/04/15 04:15:30;;;;;;;18.83;13.32;;;10.70;99.90;;;;;;5092404;28;20205;-55
2022/04/15 04:17:56;;;;;;;20.75;12.63;;;10.60;99.90;;;;;;5092378;28;20181;-55
2022/04/15 04:20:22;;;;;;;21.92;13.98;;;10.60;99.90;;;;;;5092446;28;20170;-55
2022/04/15 04:22:48;;;;;;;20.08;12.80;;;10.50;99.90;;;;;;5092600;28;20161;-54
2022/04/15 04:25:13;;;;;;;20.02;12.70;;;10.50;99.90;;;;;;5092197;28;20509;-55
2022/04/15 04:27:40;;;;;;;23.73;14.57;;;10.50;99.90;;;;;;5092596;28;20208;-55
2022/04/15 04:30:08;;;;;;;17.98;12.55;;;10.50;99.90;;;;;;5092180;28;20256;-55
2022/04/15 04:32:33;;;;;;;23.95;13.45;;;10.50;99.90;;;;;;5092230;28;20193;-55
2022/04/15 04:34:59;;;;;;;50.15;25.90;;;10.50;99.90;;;;;;5092134;28;20666;-55
2022/04/15 04:37:24;;;;;;;35.92;22.90;;;10.40;99.90;;;;;;5092087;28;20638;-55
2022/04/15 04:39:50;;;;;;;27.38;16.90;;;10.40;99.90;;;;;;5092071;28;20223;-55
2022/04/15 04:42:18;;;;;;;21.80;14.50;;;10.50;99.90;;;;;;5092075;28;20166;-55
2022/04/15 04:44:44;;;;;;;19.70;14.73;;;10.40;99.90;;;;;;5092238;28;20173;-55
2022/04/15 04:47:10;;;;;;;19.77;14.80;;;10.40;99.90;;;;;;5092267;28;20166;-55
2022/04/15 04:49:36;;;;;;;21.55;15.45;;;11.80;99.90;;;;;;5092070;28;20236;-54
2022/04/15 04:52:03;;;;;;;23.73;14.80;;;10.40;99.90;;;;;;5092014;28;20173;-54
2022/04/15 04:54:29;;;;;;;18.55;14.02;;;10.40;99.90;;;;;;5091872;28;20224;-55
2022/04/15 04:56:55;;;;;;;18.55;14.35;;;10.30;99.90;;;;;;5092172;28;20248;-55
2022/04/15 04:59:22;;;;;;;22.42;14.75;;;10.30;99.90;;;;;;5091889;28;20634;-54
2022/04/15 05:01:48;;;;;;;19.65;14.23;;;10.30;99.90;;;;;;5092040;28;20302;-56
2022/04/15 05:04:13;;;;;;;20.65;14.40;;;10.40;99.90;;;;;;5091899;28;20255;-55
2022/04/15 05:06:39;;;;;;;25.92;15.48;;;10.50;99.90;;;;;;5091986;28;20639;-55
2022/04/15 05:09:04;;;;;;;18.73;14.10;;;10.50;99.90;;;;;;5091817;28;20205;-54
2022/04/15 05:11:30;;;;;;;20.52;13.90;;;10.50;99.90;;;;;;5094230;28;20165;-55
2022/04/15 05:13:55;;;;;;;19.58;14.35;;;10.50;99.90;;;;;;5095884;28;20535;-55
2022/04/15 05:16:21;;;;;;;19.30;13.60;;;10.60;99.90;;;;;;5096023;28;20190;-55
2022/04/15 05:18:47;;;;;;;21.92;15.15;;;10.60;99.90;;;;;;5095840;28;20179;-55
2022/04/15 05:21:13;;;;;;;21.13;14.75;;;10.70;99.90;;;;;;5095800;28;20176;-54
2022/04/15 05:23:39;;;;;;;23.08;15.45;;;10.80;99.90;;;;;;5096146;28;20252;-56
2022/04/15 05:26:04;;;;;;;22.40;14.65;;;10.80;99.90;;;;;;5095650;28;20244;-56
2022/04/15 05:28:32;;;;;;;20.20;13.88;;;10.80;99.90;;;;;;5095717;28;20630;-56
2022/04/15 05:30:58;;;;;;;20.77;14.80;;;10.90;99.90;;;;;;5095894;28;20180;-55
2022/04/15 05:33:24;;;;;;;19.55;14.65;;;10.90;99.90;;;;;;5095587;28;20165;-55
2022/04/15 05:35:49;;;;;;;19.70;14.55;;;11.00;99.90;;;;;;5095538;28;20197;-56
2022/04/15 05:38:15;;;;;;;23.00;16.02;;;11.00;99.90;;;;;;5095485;28;20633;-54
2022/04/15 05:40:40;;;;;;;21.40;14.88;;;11.10;99.90;;;;;;5095312;28;20256;-55
2022/04/15 05:43:06;;;;;;;23.20;15.73;;;11.10;99.90;;;;;;5095384;28;20170;-56
2022/04/15 05:45:31;;;;;;;23.67;15.63;;;11.10;99.90;;;;;;5095307;28;20174;-55
2022/04/15 05:47:58;;;;;;;23.90;15.55;;;11.20;99.90;;;;;;5095331;28;20620;-55
2022/04/15 05:50:24;;;;;;;23.45;15.32;;;11.10;99.90;;;;;;5093915;28;20644;-57
2022/04/15 05:52:50;;;;;;;25.15;16.08;;;11.30;99.90;;;;;;5095440;28;20173;-55
2022/04/15 05:55:15;;;;;;;24.10;16.38;;;11.30;99.90;;;;;;5093646;28;20213;-55
2022/04/15 05:57:41;;;;;;;24.92;16.67;;;11.30;99.90;;;;;;5095065;28;20172;-55
2022/04/15 06:00:07;;;;;;;26.85;17.20;;;11.30;99.90;;;;;;5093865;28;20219;-55
2022/04/15 06:02:32;;;;;;;26.40;17.73;;;11.30;99.90;;;;;;5095332;28;20490;-55
2022/04/15 06:04:58;;;;;;;26.70;17.70;;;11.30;99.90;;;;;;5094554;28;20246;-56
2022/04/15 06:07:23;;;;;;;26.40;19.23;;;11.20;99.90;;;;;;5094805;28;20201;-56
2022/04/15 06:09:49;;;;;;;26.70;17.42;;;11.30;99.90;;;;;;5094791;28;20161;-54
2022/04/15 06:12:15;;;;;;;27.08;17.90;;;11.30;99.90;;;;;;5094866;28;20615;-55
2022/04/15 06:14:42;;;;;;;24.48;16.73;;;11.40;99.90;;;;;;5095099;28;20266;-56
2022/04/15 06:17:08;;;;;;;22.10;15.57;;;11.40;99.90;;;;;;5094895;28;20642;-55
2022/04/15 06:19:33;;;;;;;24.27;17.70;;;11.40;99.90;;;;;;5094712;28;20165;-55
2022/04/15 06:21:59;;;;;;;22.65;15.73;;;11.40;99.90;;;;;;5093812;28;20196;-56
2022/04/15 06:24:24;;;;;;;20.40;14.48;;;11.40;99.90;;;;;;5094374;28;20180;-54
2022/04/15 06:26:51;;;;;;;22.92;16.15;;;11.40;99.90;;;;;;5094558;28;20165;-54
2022/04/15 06:29:17;;;;;;;23.45;16.85;;;11.50;99.90;;;;;;5094518;28;20611;-56
2022/04/15 06:31:42;;;;;;;23.80;15.48;;;11.60;99.90;;;;;;5094263;28;20183;-55
2022/04/15 06:34:08;;;;;;;21.63;16.35;;;11.70;99.90;;;;;;5094395;28;20218;-55
2022/04/15 06:36:33;;;;;;;22.98;16.48;;;11.70;99.90;;;;;;5094127;28;20235;-56
2022/04/15 06:38:59;;;;;;;24.73;16.33;;;11.80;99.90;;;;;;5094148;28;20207;-55
2022/04/15 06:41:24;;;;;;;24.67;15.98;;;11.90;99.90;;;;;;5094365;28;20256;-55
2022/04/15 06:43:50;;;;;;;21.98;15.32;;;11.90;99.90;;;;;;5094249;28;20175;-57
2022/04/15 06:46:15;;;;;;;21.20;17.00;;;11.90;99.90;;;;;;5094176;28;20222;-57
2022/04/15 06:48:41;;;;;;;18.77;14.30;;;12.00;99.90;;;;;;5094501;28;20166;-57
2022/04/15 06:51:06;;;;;;;17.45;13.40;;;12.00;99.90;;;;;;5094060;28;20169;-55
2022/04/15 06:53:32;;;;;;;18.02;14.13;;;11.90;99.90;;;;;;5093888;28;20173;-56
2022/04/15 06:55:57;;;;;;;19.40;14.25;;;11.80;99.90;;;;;;5093749;28;20236;-57
2022/04/15 06:58:23;;;;;;;17.88;15.18;;;11.90;99.90;;;;;;5093875;28;20165;-56
2022/04/15 07:00:49;;;;;;;19.55;15.52;;;11.90;99.90;;;;;;5093782;28;20215;-52
2022/04/15 07:03:15;;;;;;;25.00;18.58;;;12.00;99.90;;;;;;5092422;28;20240;-54
2022/04/15 07:05:41;;;;;;;25.52;20.73;;;11.90;99.90;;;;;;5092679;28;20270;-54
2022/04/15 07:08:09;;;;;;;31.33;23.58;;;11.90;99.90;;;;;;5094142;28;20165;-54
2022/04/15 07:10:39;;;;;;;31.23;21.83;;;11.80;99.90;;;;;;5093936;28;20177;-54
2022/04/15 07:13:04;;;;;;;38.58;24.83;;;11.80;99.90;;;;;;5093585;28;20172;-55
2022/04/15 07:15:30;;;;;;;35.33;27.27;;;11.70;99.90;;;;;;5093398;28;20209;-54
2022/04/15 07:17:56;;;;;;;34.15;24.95;;;11.70;99.90;;;;;;5093453;28;20248;-55
2022/04/15 07:20:22;;;;;;;37.00;26.90;;;11.60;99.90;;;;;;5093569;28;20170;-54
2022/04/15 07:22:57;;;;;;;43.00;29.60;;;11.70;99.90;;;;;;5092963;28;20252;-55
2022/04/15 07:25:25;;;;;;;56.00;35.80;;;11.60;99.90;;;;;;5093319;28;20173;-55
2022/04/15 07:27:50;;;;;;;58.95;40.25;;;11.60;99.90;;;;;;5092253;28;20524;-55
2022/04/15 07:30:17;;;;;;;67.75;42.83;;;11.60;99.90;;;;;;5093192;28;20173;-52
2022/04/15 07:32:44;;;;;;;93.13;50.53;;;11.50;99.90;;;;;;5093392;28;20226;-52
2022/04/15 07:35:09;;;;;;;86.82;50.67;;;11.40;99.90;;;;;;5092521;28;20232;-54
2022/04/15 07:37:35;;;;;;;93.63;51.95;;;11.40;99.90;;;;;;5093109;28;20579;-54
2022/04/15 07:40:00;;;;;;;117.70;56.35;;;11.50;99.90;;;;;;5092955;28;20169;-55
2022/04/15 07:42:26;;;;;;;114.53;56.17;;;11.40;99.90;;;;;;5093026;28;20165;-55
2022/04/15 07:44:51;;;;;;;119.40;57.20;;;11.40;99.90;;;;;;5092793;28;20169;-54
2022/04/15 07:47:17;;;;;;;116.90;53.20;;;11.40;99.90;;;;;;5092918;28;20176;-54
2022/04/15 07:49:42;;;;;;;120.53;54.95;;;11.20;99.90;;;;;;5093146;28;20180;-54
2022/04/15 07:52:08;;;;;;;115.03;52.97;;;11.20;99.90;;;;;;5093369;28;20169;-54
2022/04/15 07:54:34;;;;;;;117.95;55.45;;;11.10;99.90;;;;;;5092813;28;20681;-54
2022/04/15 07:57:00;;;;;;;108.15;51.83;;;12.90;99.90;;;;;;5093079;28;20529;-55
2022/04/15 07:59:26;;;;;;;114.85;51.17;;;10.90;99.90;;;;;;5092909;28;20634;-54
2022/04/15 08:01:53;;;;;;;111.47;51.85;;;10.90;99.90;;;;;;5092735;28;20173;-55
2022/04/15 08:04:18;;;;;;;113.88;50.30;;;10.80;99.90;;;;;;5092707;28;20217;-54
2022/04/15 08:06:44;;;;;;;112.57;48.03;;;10.70;99.90;;;;;;5092570;28;20162;-54
2022/04/15 08:09:10;;;;;;;98.53;45.63;;;10.70;99.90;;;;;;5093175;28;20200;-54
2022/04/15 08:11:35;;;;;;;81.05;39.35;;;10.80;99.90;;;;;;5092594;28;20195;-53
2022/04/15 08:14:01;;;;;;;100.55;44.95;;;10.70;99.90;;;;;;5091363;28;20665;-54
2022/04/15 08:16:27;;;;;;;88.20;40.30;;;10.70;99.90;;;;;;5092535;28;20170;-54
2022/04/15 08:18:55;;;;;;;91.47;43.13;;;10.80;99.90;;;;;;5092606;28;20235;-54
2022/04/15 08:21:21;;;;;;;98.88;45.55;;;10.80;99.90;;;;;;5092549;28;20179;-54
2022/04/15 08:23:47;;;;;;;97.50;44.17;;;10.80;99.90;;;;;;5092178;28;20169;-53
2022/04/15 08:26:12;;;;;;;109.57;48.03;;;10.80;99.90;;;;;;5092841;28;20165;-53
2022/04/15 08:28:38;;;;;;;118.38;51.03;;;10.80;99.90;;;;;;5092533;28;20599;-54
2022/04/15 08:31:03;;;;;;;110.65;46.90;;;10.80;99.90;;;;;;5092160;28;20170;-54
2022/04/15 08:33:29;;;;;;;93.90;45.70;;;10.80;99.90;;;;;;5092327;28;20188;-54
2022/04/15 08:35:55;;;;;;;83.18;43.75;;;10.90;99.90;;;;;;5091963;28;20712;-54
2022/04/15 08:38:21;;;;;;;86.72;42.58;;;10.90;99.90;;;;;;5092087;28;20165;-54
2022/04/15 08:40:50;;;;;;;89.22;44.97;;;10.90;99.90;;;;;;5092009;28;20157;-54
2022/04/15 08:43:16;;;;;;;99.13;47.35;;;10.70;99.90;;;;;;5090592;28;20614;-54
2022/04/15 08:45:45;;;;;;;102.25;48.95;;;10.70;99.90;;;;;;5092023;28;20176;-55
2022/04/15 08:48:11;;;;;;;81.93;42.67;;;10.90;99.90;;;;;;5092599;28;20238;-54
2022/04/15 08:50:36;;;;;;;51.00;29.45;;;10.90;99.90;;;;;;5091912;28;20618;-54
2022/04/15 08:53:04;;;;;;;50.03;29.27;;;11.00;99.90;;;;;;5092096;28;20703;-53
2022/04/15 08:55:29;;;;;;;45.65;29.38;;;11.10;99.90;;;;;;5090466;28;20283;-53
2022/04/15 08:57:56;;;;;;;46.15;28.15;;;11.40;99.90;;;;;;5091438;28;20260;-53
2022/04/15 09:00:23;;;;;;;40.20;25.55;;;11.40;99.90;;;;;;5091596;28;20176;-54
2022/04/15 09:02:51;;;;;;;30.75;22.05;;;11.60;99.90;;;;;;5091150;28;20169;-54
2022/04/15 09:05:28;;;;;;;23.88;18.48;;;11.80;99.90;;;;;;5091239;28;20329;-53
2022/04/15 09:08:21;;;;;;;25.90;19.13;;;12.10;99.90;;;;;;5091617;28;20193;-53
2022/04/15 09:10:55;;;;;;;24.20;18.00;;;12.30;99.90;;;;;;5085201;28;20182;-52
2022/04/15 09:13:22;;;;;;;21.75;18.73;;;12.50;99.90;;;;;;5091211;28;20180;-55
2022/04/15 09:15:47;;;;;;;21.75;17.92;;;12.30;99.90;;;;;;5091134;28;20204;-52
2022/04/15 09:18:30;;;;;;;20.30;17.33;;;12.30;99.90;;;;;;5091199;28;20530;-53
2022/04/15 09:21:16;;;;;;;19.42;16.95;;;13.00;99.90;;;;;;5091161;28;20181;-54
2022/04/15 09:23:43;;;;;;;22.35;18.70;;;13.60;99.90;;;;;;5091548;28;20261;-54
2022/04/15 09:26:09;;;;;;;21.30;19.15;;;13.60;99.90;;;;;;5091729;28;20166;-53
2022/04/15 09:28:35;;;;;;;23.05;18.27;;;13.80;99.90;;;;;;5091292;28;20169;-54
2022/04/15 09:31:02;;;;;;;21.25;19.17;;;13.90;99.90;;;;;;5091335;28;20646;-53
2022/04/15 09:33:29;;;;;;;21.70;18.98;;;13.90;99.90;;;;;;5091608;28;20169;-54
2022/04/15 09:35:55;;;;;;;21.70;18.70;;;14.00;99.90;;;;;;5091352;28;20193;-54
2022/04/15 09:38:42;;;;;;;20.92;18.73;;;14.00;99.90;;;;;;5091181;28;20164;-54
2022/04/15 09:41:24;;;;;;;18.10;16.35;;;14.20;99.90;;;;;;5091038;28;20646;-54
2022/04/15 09:43:54;;;;;;;21.30;19.10;;;14.30;99.90;;;;;;5091161;28;20638;-53
2022/04/15 09:46:20;;;;;;;19.98;17.98;;;14.20;99.90;;;;;;5091110;28;20169;-54
2022/04/15 09:49:09;;;;;;;18.63;16.75;;;14.50;99.90;;;;;;5091029;28;20158;-54
2022/04/15 09:51:43;;;;;;;15.68;14.18;;;14.70;99.90;;;;;;5091295;28;20161;-54
2022/04/15 09:54:22;;;;;;;18.30;16.50;;;14.70;99.90;;;;;;5091485;28;20657;-54
2022/04/15 09:56:48;;;;;;;16.98;15.18;;;14.80;99.90;;;;;;5091211;28;20247;-54
2022/04/15 09:59:15;;;;;;;16.05;12.93;;;15.10;99.90;;;;;;5094685;28;20162;-53
2022/04/15 10:01:46;;;;;;;14.98;11.60;;;14.80;99.90;;;;;;5095216;28;20528;-53
2022/04/15 10:04:13;;;;;;;14.55;13.10;;;14.60;99.90;;;;;;5094950;28;20247;-53
2022/04/15 10:06:41;;;;;;;15.30;13.82;;;14.70;99.90;;;;;;5095544;28;20189;-54
2022/04/15 10:09:11;;;;;;;14.85;13.35;;;14.70;99.90;;;;;;5094866;28;20245;-54
2022/04/15 10:11:38;;;;;;;14.82;13.32;;;14.30;99.90;;;;;;5095052;28;20539;-54
2022/04/15 10:14:04;;;;;;;15.18;13.30;;;14.30;99.90;;;;;;5094609;28;20215;-54
2022/04/15 10:16:33;;;;;;;15.70;13.82;;;14.50;99.90;;;;;;5094406;28;20281;-54
2022/04/15 10:19:00;;;;;;;15.80;13.18;;;14.80;99.90;;;;;;5094664;28;20657;-54
2022/04/15 10:21:28;;;;;;;14.93;13.40;;;14.90;99.90;;;;;;5094621;28;20205;-54
2022/04/15 10:23:53;;;;;;;14.43;13.02;;;15.00;99.90;;;;;;5094658;28;20614;-55
2022/04/15 10:26:19;;;;;;;11.30;10.20;;;15.20;99.90;;;;;;5094141;28;20177;-55
2022/04/15 10:28:47;;;;;;;11.23;9.98;;;15.40;99.90;;;;;;5094494;28;20161;-54
2022/04/15 10:31:16;;;;;;;11.02;9.95;;;15.40;99.90;;;;;;5094802;28;20169;-54
2022/04/15 10:33:43;;;;;;;10.48;9.05;;;15.40;99.90;;;;;;5094765;28;20508;-54
2022/04/15 10:36:23;;;;;;;12.25;11.00;;;15.20;99.90;;;;;;5094390;28;20670;-54
2022/04/15 10:39:07;;;;;;;12.30;10.98;;;15.40;99.90;;;;;;5094260;28;20247;-54
2022/04/15 10:42:04;;;;;;;9.00;7.82;;;15.30;99.90;;;;;;5094291;28;20169;-54
2022/04/15 10:44:33;;;;;;;10.95;8.73;;;15.20;99.90;;;;;;5093684;28;20201;-54
2022/04/15 10:47:03;;;;;;;9.82;8.07;;;15.20;99.90;;;;;;5094336;28;20173;-54
2022/04/15 10:49:30;;;;;;;11.63;9.40;;;15.60;99.90;;;;;;5092674;28;20200;-54
2022/04/15 10:52:02;;;;;;;9.77;8.82;;;15.80;99.90;;;;;;5094172;28;20169;-54
2022/04/15 10:54:32;;;;;;;10.57;8.95;;;15.90;99.90;;;;;;5093797;28;20250;-54
2022/04/15 10:57:30;;;;;;;11.88;8.07;;;16.20;99.90;;;;;;5093543;28;20189;-54
2022/04/15 11:02:48;;;;;;;9.27;8.15;;;16.10;99.90;;;;;;5094188;28;20188;-54
2022/04/15 11:05:35;;;;;;;18.13;9.23;;;16.50;99.90;;;;;;5093262;28;20223;-55
2022/04/15 11:08:11;;;;;;;10.10;8.98;;;16.50;99.90;;;;;;5093863;28;20183;-55
2022/04/15 11:10:42;;;;;;;10.18;8.75;;;16.00;99.90;;;;;;5093591;28;20561;-55
2022/04/15 11:13:28;;;;;;;15.13;10.00;;;15.90;99.90;;;;;;5094220;28;20169;-55
2022/04/15 11:16:11;;;;;;;10.45;9.35;;;16.60;99.90;;;;;;5093344;28;20245;-55
2022/04/15 11:18:43;;;;;;;15.77;10.00;;;16.30;99.90;;;;;;5093530;28;20626;-55
2022/04/15 11:21:22;;;;;;;11.38;8.75;;;16.10;99.90;;;;;;5094028;28;20261;-55
2022/04/15 11:23:55;;;;;;;9.90;8.43;;;16.10;99.90;;;;;;5093237;28;20631;-56
2022/04/15 11:26:22;;;;;;;10.55;9.13;;;16.50;99.90;;;;;;5093330;28;20310;-55
2022/04/15 11:28:52;;;;;;;12.82;9.65;;;16.40;99.90;;;;;;5093541;28;20174;-55
2022/04/15 11:31:22;;;;;;;13.82;11.27;;;16.50;99.90;;;;;;5092992;28;20161;-54
2022/04/15 11:33:48;;;;;;;12.98;11.52;;;16.80;99.90;;;;;;5093476;28;20191;-55
2022/04/15 11:36:13;;;;;;;14.95;12.20;;;17.00;99.90;;;;;;5091749;28;20677;-55
2022/04/15 11:38:39;;;;;;;14.48;12.85;;;17.00;99.90;;;;;;5092185;28;20176;-55
2022/04/15 11:41:05;;;;;;;13.73;12.23;;;17.30;99.90;;;;;;5093080;28;20250;-55
2022/04/15 11:43:31;;;;;;;14.27;12.85;;;17.50;99.90;;;;;;5091773;28;20622;-55
2022/04/15 11:45:56;;;;;;;16.73;13.32;;;17.20;99.90;;;;;;5092731;28;20173;-55
2022/04/15 11:48:26;;;;;;;16.33;14.52;;;17.00;99.90;;;;;;5092944;28;20174;-55
2022/04/15 11:50:54;;;;;;;16.13;14.45;;;16.80;99.90;;;;;;5091594;28;20610;-55
2022/04/15 11:53:20;;;;;;;15.48;13.85;;;16.70;99.90;;;;;;5092991;28;20165;-54
2022/04/15 11:55:49;;;;;;;15.93;14.27;;;16.70;99.90;;;;;;5092995;28;20209;-54
2022/04/15 11:58:15;;;;;;;15.55;13.20;;;16.90;99.90;;;;;;5092679;28;20162;-55
2022/04/15 12:00:41;;;;;;;18.02;15.85;;;16.90;99.90;;;;;;5092552;28;20535;-55
2022/04/15 12:03:06;;;;;;;17.15;15.35;;;16.80;99.90;;;;;;5091374;28;20260;-55
2022/04/15 12:05:32;;;;;;;18.65;16.02;;;16.90;99.90;;;;;;5092531;28;20221;-56
2022/04/15 12:07:58;;;;;;;18.33;15.25;;;16.80;99.90;;;;;;5092901;28;20172;-53
2022/04/15 12:10:24;;;;;;;17.55;15.15;;;16.50;99.90;;;;;;5091418;28;20250;-54
2022/04/15 12:12:50;;;;;;;17.17;13.43;;;16.50;99.90;;;;;;5092540;28;20214;-55
2022/04/15 12:15:16;;;;;;;14.27;12.75;;;16.50;99.90;;;;;;5092366;28;20270;-55
2022/04/15 12:17:42;;;;;;;19.65;16.13;;;16.20;99.90;;;;;;5092371;28;20208;-55
2022/04/15 12:20:09;;;;;;;19.17;16.27;;;16.30;99.90;;;;;;5091809;28;20636;-56
2022/04/15 12:22:36;;;;;;;16.42;14.00;;;16.60;99.90;;;;;;5092357;28;20166;-55
2022/04/15 12:25:19;;;;;;;17.25;13.13;;;16.60;99.90;;;;;;5092209;28;20663;-55
2022/04/15 12:27:46;;;;;;;20.38;16.55;;;16.50;99.90;;;;;;5092427;28;20173;-55
2022/04/15 12:30:34;;;;;;;20.85;17.45;;;16.50;99.90;;;;;;5092718;28;20258;-53
2022/04/15 12:33:10;;;;;;;19.75;17.67;;;16.70;99.90;;;;;;5090423;28;20170;-55